Meteo Giornale » Osservazioni meteo Stati Uniti (USA) » Lawrence
ore: 00:52 - Osservazioni Meteo Lawrence
Lat. 39° 0' N Lon. 95° 12' W Alt. 253 metri s.l.m.
23 °C
Sereno
Temp. 24 Ore
19 °C
38 °C
Est/Sud-Est
7.4 Km/h
Dew point 18 °C
Umidità 73 %
Visibilità 10 Km
Il sole sorge alle ore 06:50
Il sole tramonta alle ore 19:49
| Data e Ora | Cielo e Fenomeni | T °C | DP °C | Um. % | Pres. hPa | Vis. km | Vento km/h | |
|---|---|---|---|---|---|---|---|---|
| Oggi h: 00:52 | Sereno | 23 | 18 | 73 | 1014 | 10 | E/SE 7.4 | |
| Ieri h: 23:52 | Sereno | 23 | 18 | 73 | 1013 | 10 | SE 7.4 | |
| Ieri h: 22:52 | Sereno | 24 | 19 | 73 | 1014 | 14 | S/SE 7.4 | |
| Ieri h: 21:52 | Sereno | 25 | 19 | 69 | 1013 | 10 | SE 7.4 | |
| Ieri h: 20:52 | Sereno | 25 | 20 | 73 | 1012 | 10 | E/SE 7.4 | |
| Ieri h: 19:52 | Foschia | 28 | 20 | 61 | 1012 | 10 | S/SE 9.3 | |
| Ieri h: 18:52 | Sereno | 34 | 17 | 36 | 1012 | 10 | S 9.3 | |
| Ieri h: 17:52 | Sereno | 37 | 16 | 28 | 1012 | 10 | S 18.5 | |
| Ieri h: 16:52 | Sereno | 38 | 16 | 27 | 1012 | 10 | S/SO 22.2 | |
| Ieri h: 15:52 | Sereno | 38 | 16 | 27 | 1013 | 10 | SO 24 | |
| Ieri h: 14:52 | Sereno | 38 | 17 | 29 | 1014 | 10 | S 20.3 | |
| Ieri h: 13:52 | Sereno | 38 | 17 | 29 | 1014 | 10 | SO 22.2 | |
| Ieri h: 12:52 | Sereno | 37 | 17 | 30 | 1015 | 10 | SO 25.9 | |
| Ieri h: 11:52 | Sereno | 36 | 18 | 34 | 1016 | 10 | S/SO 20.3 | |
| Ieri h: 10:52 | Sereno | 32 | 18 | 43 | 1016 | 10 | S 11.1 | |
| Ieri h: 09:52 | Sereno | 30 | 18 | 48 | 1016 | 10 | S 9.3 | |
| Ieri h: 08:52 | Sereno | 26 | 19 | 65 | 1016 | 14 | N 5.5 | |
| Ieri h: 07:52 | Sereno | 22 | 19 | 83 | 1016 | 13 | SE 9.3 | |
| Ieri h: 06:52 | Sereno | 19 | 17 | 88 | 1016 | 14 | N 5.5 | |
| Ieri h: 05:52 | Sereno | 19 | 17 | 88 | 1015 | 14 | N 0 | |
| Ieri h: 04:52 | Sereno | 21 | 17 | 77 | 1015 | 10 | E/SE 13 | |
| Ieri h: 03:52 | Sereno | 20 | 18 | 88 | 1014 | 10 | N 5.5 | |
| Ieri h: 02:52 | Sereno | 21 | 18 | 82 | 1014 | 10 | E 7.4 | |
| Ieri h: 01:52 | Sereno | 21 | 18 | 82 | 1015 | 10 | N 0 | |



